Time;durP1;ratioP1;P1;durP2;ratioP2;P2;SDS_P1;SDS_P2;PMS_P1;PMS_P2;Temp;Humidity;BMP_temperature;BMP_pressure;BME280_temperature;BME280_humidity;BME280_pressure;Samples;Min_cycle;Max_cycle;Signal;HPM_P1;HPM_P2
2021/07/12 00:00:23;;;;;;;33.30;28.15;;;;;;;;;;5085368;28;20092;-73
2021/07/12 00:02:49;;;;;;;33.83;27.52;;;;;;;;;;5066631;28;20040;-74
2021/07/12 00:05:16;;;;;;;35.05;30.48;;;;;;;;;;5082695;28;20048;-73
2021/07/12 00:07:42;;;;;;;30.02;26.75;;;;;;;;;;5080996;28;20041;-74
2021/07/12 00:10:10;;;;;;;33.63;27.85;;;;;;;;;;5085340;28;20072;-74
2021/07/12 00:12:36;;;;;;;34.53;27.88;;;;;;;;;;5083657;28;20043;-73
2021/07/12 00:15:04;;;;;;;34.58;29.55;;;;;;;;;;5082534;28;20474;-73
2021/07/12 00:17:30;;;;;;;34.72;27.80;;;;;;;;;;5065431;28;20036;-74
2021/07/12 00:19:57;;;;;;;31.38;27.20;;;;;;;;;;5086402;28;20036;-73
2021/07/12 00:22:23;;;;;;;36.00;30.65;;;;;;;;;;5084622;28;20523;-73
2021/07/12 00:24:49;;;;;;;42.75;31.80;;;;;;;;;;5084401;28;20046;-73
2021/07/12 00:27:15;;;;;;;31.63;27.92;;;;;;;;;;5083407;28;20510;-73
2021/07/12 00:29:42;;;;;;;34.50;28.85;;;;;;;;;;5080968;28;20040;-73
2021/07/12 00:32:08;;;;;;;33.05;28.15;;;;;;;;;;5084331;28;20063;-73
2021/07/12 00:34:34;;;;;;;35.22;29.38;;;;;;;;;;5083931;28;20080;-73
2021/07/12 00:37:00;;;;;;;36.03;30.02;;;;;;;;;;5084628;28;20059;-73
2021/07/12 00:39:27;;;;;;;39.17;29.65;;;;;;;;;;5086346;28;20199;-73
2021/07/12 00:41:53;;;;;;;37.15;30.00;;;;;;;;;;5066268;28;20127;-73
2021/07/12 00:44:20;;;;;;;37.88;29.98;;;;;;;;;;5084550;28;20067;-73
2021/07/12 00:46:47;;;;;;;33.42;28.27;;;;;;;;;;5082752;28;20044;-74
2021/07/12 00:49:13;;;;;;;36.50;29.30;;;;;;;;;;5082207;28;20082;-73
2021/07/12 00:51:39;;;;;;;38.88;30.42;;;;;;;;;;5079927;28;20046;-73
2021/07/12 00:54:05;;;;;;;40.78;30.50;;;;;;;;;;5082626;28;20051;-73
2021/07/12 00:56:33;;;;;;;33.15;27.63;;;;;;;;;;5063750;28;20147;-73
2021/07/12 00:58:59;;;;;;;38.15;31.45;;;;;;;;;;5066782;28;20040;-73
2021/07/12 01:01:26;;;;;;;34.72;29.63;;;;;;;;;;5085074;28;20042;-73
2021/07/12 01:03:52;;;;;;;41.15;30.60;;;;;;;;;;5082623;28;20040;-73
2021/07/12 01:06:18;;;;;;;37.22;29.25;;;;;;;;;;5080676;28;20028;-74
2021/07/12 01:08:44;;;;;;;38.17;29.77;;;;;;;;;;5079612;28;20130;-73
2021/07/12 01:11:32;;;;;;;34.70;28.27;;;;;;;;;;5079842;28;20047;-73
2021/07/12 01:14:19;;;;;;;32.90;26.80;;;;;;;;;;5084191;28;20815;-73
2021/07/12 01:16:53;;;;;;;38.75;29.73;;;;;;;;;;5081185;28;20047;-74
2021/07/12 01:19:35;;;;;;;35.28;29.70;;;;;;;;;;5069563;28;20040;-73
2021/07/12 01:22:02;;;;;;;;;;;;;;;;;;5068687;28;20043;-73
2021/07/12 01:24:41;;;;;;;38.47;31.05;;;;;;;;;;5082032;28;19932;-74
2021/07/12 01:27:25;;;;;;;36.22;29.33;;;;;;;;;;5084501;28;20044;-73
2021/07/12 01:30:08;;;;;;;46.10;33.05;;;;;;;;;;5077122;28;20526;-73
2021/07/12 01:32:41;;;;;;;41.88;32.05;;;;;;;;;;5071509;28;20190;-73
2021/07/12 01:35:24;;;;;;;39.35;30.33;;;;;;;;;;5066430;28;20557;-74
2021/07/12 01:37:54;;;;;;;48.27;33.33;;;;;;;;;;5046131;28;20036;-73
2021/07/12 01:40:29;;;;;;;39.75;31.10;;;;;;;;;;5066796;28;20052;-73
2021/07/12 01:43:02;;;;;;;49.13;33.60;;;;;;;;;;5067281;28;20037;-73
2021/07/12 01:45:36;;;;;;;42.95;34.13;;;;;;;;;;5063428;28;20127;-74
2021/07/12 01:48:05;;;;;;;46.13;34.90;;;;;;;;;;5067105;28;20143;-73
2021/07/12 01:50:34;;;;;;;37.88;30.42;;;;;;;;;;5066795;28;20040;-73
2021/07/12 01:53:06;;;;;;;41.90;33.70;;;;;;;;;;5063459;28;20041;-73
2021/07/12 01:55:45;;;;;;;38.17;31.10;;;;;;;;;;5065581;28;20040;-74
2021/07/12 01:58:17;;;;;;;47.90;35.65;;;;;;;;;;5065940;28;20050;-73
2021/07/12 02:00:45;;;;;;;41.80;33.45;;;;;;;;;;5064012;28;20095;-73
2021/07/12 02:03:13;;;;;;;42.53;31.33;;;;;;;;;;5062883;28;20074;-73
2021/07/12 02:05:40;;;;;;;42.17;32.85;;;;;;;;;;5062297;28;20384;-73
2021/07/12 02:08:08;;;;;;;38.90;32.17;;;;;;;;;;5060552;28;20061;-73
2021/07/12 02:10:35;;;;;;;36.88;30.00;;;;;;;;;;5065450;28;20106;-73
2021/07/12 02:13:01;;;;;;;39.67;30.40;;;;;;;;;;5046287;28;20060;-73
2021/07/12 02:15:28;;;;;;;44.90;32.75;;;;;;;;;;5063293;28;20433;-73
2021/07/12 02:17:55;;;;;;;38.88;30.73;;;;;;;;;;5064065;28;20049;-73
2021/07/12 02:20:24;;;;;;;38.63;31.38;;;;;;;;;;5046457;28;20161;-73
2021/07/12 02:22:51;;;;;;;45.17;33.25;;;;;;;;;;5031968;28;20055;-73
2021/07/12 02:25:18;;;;;;;42.83;33.15;;;;;;;;;;5046673;28;20056;-73
2021/07/12 02:27:45;;;;;;;41.28;31.88;;;;;;;;;;5066272;28;20593;-73
2021/07/12 02:30:12;;;;;;;40.17;33.28;;;;;;;;;;5063613;28;20496;-73
2021/07/12 02:32:39;;;;;;;55.00;38.75;;;;;;;;;;5078297;28;20067;-74
2021/07/12 02:35:06;;;;;;;40.60;33.83;;;;;;;;;;5079973;28;20043;-73
2021/07/12 02:37:35;;;;;;;53.47;37.03;;;;;;;;;;5085971;28;20052;-74
2021/07/12 02:40:01;;;;;;;41.53;34.33;;;;;;;;;;5079461;28;20145;-73
2021/07/12 02:42:28;;;;;;;37.70;31.73;;;;;;;;;;5083204;28;20067;-73
2021/07/12 02:44:54;;;;;;;39.17;32.78;;;;;;;;;;5064631;28;20048;-73
2021/07/12 02:47:21;;;;;;;44.65;34.30;;;;;;;;;;5083683;28;20441;-73
2021/07/12 02:49:47;;;;;;;42.50;34.28;;;;;;;;;;5085859;28;20097;-73
2021/07/12 02:52:18;;;;;;;43.60;32.17;;;;;;;;;;5084455;28;20067;-73
2021/07/12 02:54:47;;;;;;;38.78;32.10;;;;;;;;;;5085454;28;20070;-74
2021/07/12 02:57:13;;;;;;;42.78;34.28;;;;;;;;;;5063047;28;20044;-73
2021/07/12 02:59:40;;;;;;;35.60;30.65;;;;;;;;;;5078963;28;20052;-73
2021/07/12 03:02:06;;;;;;;42.13;31.60;;;;;;;;;;5075861;28;20503;-73
2021/07/12 03:04:32;;;;;;;37.22;30.60;;;;;;;;;;5081686;28;20036;-73
2021/07/12 03:07:02;;;;;;;36.03;29.35;;;;;;;;;;5079511;28;20055;-74
2021/07/12 03:09:35;;;;;;;35.83;30.83;;;;;;;;;;5079476;28;20044;-73
2021/07/12 03:12:01;;;;;;;;;;;;;;;;;;5083088;28;20060;-73
2021/07/12 03:14:42;;;;;;;40.95;31.15;;;;;;;;;;5082708;28;19935;-73
2021/07/12 03:17:08;;;;;;;36.53;31.08;;;;;;;;;;5082724;28;20059;-73
2021/07/12 03:19:36;;;;;;;44.05;34.47;;;;;;;;;;5082198;28;20051;-73
2021/07/12 03:22:04;;;;;;;37.88;31.42;;;;;;;;;;5055746;28;20087;-73
2021/07/12 03:24:31;;;;;;;43.13;32.53;;;;;;;;;;5082007;28;20385;-73
2021/07/12 03:26:58;;;;;;;42.05;32.20;;;;;;;;;;5084262;28;20064;-73
2021/07/12 03:29:28;;;;;;;37.65;31.60;;;;;;;;;;5083499;28;20372;-73
2021/07/12 03:31:56;;;;;;;48.88;36.25;;;;;;;;;;5081631;28;20048;-74
2021/07/12 03:34:23;;;;;;;51.90;37.95;;;;;;;;;;5078259;28;20473;-73
2021/07/12 03:36:50;;;;;;;50.78;36.00;;;;;;;;;;5082729;28;20041;-73
2021/07/12 03:39:17;;;;;;;47.63;35.60;;;;;;;;;;5080338;28;20050;-73
2021/07/12 03:41:43;;;;;;;45.63;35.00;;;;;;;;;;5084808;28;20090;-73
2021/07/12 03:44:09;;;;;;;45.80;34.45;;;;;;;;;;5088272;28;20105;-73
2021/07/12 03:46:40;;;;;;;39.55;32.72;;;;;;;;;;5087651;28;20056;-73
2021/07/12 03:49:12;;;;;;;45.63;34.08;;;;;;;;;;5087453;28;20117;-73
2021/07/12 03:51:40;;;;;;;39.88;33.42;;;;;;;;;;5082239;28;20470;-73
2021/07/12 03:54:06;;;;;;;45.58;35.72;;;;;;;;;;5086151;28;20048;-73
2021/07/12 03:56:33;;;;;;;51.13;36.45;;;;;;;;;;5087469;28;20101;-74
2021/07/12 03:58:59;;;;;;;42.30;33.75;;;;;;;;;;5086969;28;20068;-73
2021/07/12 04:01:26;;;;;;;43.58;34.13;;;;;;;;;;5083499;28;20114;-74
2021/07/12 04:03:55;;;;;;;43.80;34.08;;;;;;;;;;5082604;28;20046;-73
2021/07/12 04:06:22;;;;;;;45.78;35.45;;;;;;;;;;5080357;28;20472;-73
2021/07/12 04:08:48;;;;;;;41.85;34.13;;;;;;;;;;5084563;28;20089;-74
2021/07/12 04:11:15;;;;;;;53.45;38.75;;;;;;;;;;5085795;28;20044;-73
2021/07/12 04:13:42;;;;;;;51.28;35.78;;;;;;;;;;5085498;28;20126;-73
2021/07/12 04:16:08;;;;;;;46.50;36.10;;;;;;;;;;5070033;28;20040;-73
2021/07/12 04:18:34;;;;;;;56.50;39.40;;;;;;;;;;5082900;28;20048;-73
2021/07/12 04:21:01;;;;;;;50.75;38.33;;;;;;;;;;5081886;28;20040;-73
2021/07/12 04:23:28;;;;;;;54.63;39.00;;;;;;;;;;5085539;28;20105;-73
2021/07/12 04:25:54;;;;;;;44.92;38.45;;;;;;;;;;5067297;28;20040;-73
2021/07/12 04:28:20;;;;;;;47.55;35.85;;;;;;;;;;5084142;28;20471;-73
2021/07/12 04:30:46;;;;;;;47.40;36.50;;;;;;;;;;5083571;28;20167;-73
2021/07/12 04:33:13;;;;;;;62.45;41.20;;;;;;;;;;5082494;28;20102;-73
2021/07/12 04:35:39;;;;;;;65.88;43.67;;;;;;;;;;5083793;28;20044;-73
2021/07/12 04:38:05;;;;;;;54.88;41.25;;;;;;;;;;5085403;28;20593;-73
2021/07/12 04:40:32;;;;;;;47.03;39.00;;;;;;;;;;5087019;28;20954;-73
2021/07/12 04:42:58;;;;;;;58.65;42.10;;;;;;;;;;5084232;28;20105;-73
2021/07/12 04:45:27;;;;;;;45.17;36.75;;;;;;;;;;5087600;28;20114;-74
2021/07/12 04:47:53;;;;;;;46.20;36.63;;;;;;;;;;5084670;28;20119;-74
2021/07/12 04:50:20;;;;;;;44.83;37.92;;;;;;;;;;5083578;28;20197;-74
2021/07/12 04:52:47;;;;;;;49.17;38.15;;;;;;;;;;5084153;28;20043;-84
2021/07/12 04:55:13;;;;;;;43.42;34.75;;;;;;;;;;5083712;28;20348;-74
2021/07/12 04:57:39;;;;;;;48.40;36.95;;;;;;;;;;5079722;28;20043;-74
2021/07/12 05:00:06;;;;;;;50.75;38.25;;;;;;;;;;5079705;28;20041;-74
2021/07/12 05:02:33;;;;;;;47.30;37.63;;;;;;;;;;5064874;28;20048;-74
2021/07/12 05:04:59;;;;;;;50.72;39.38;;;;;;;;;;5083378;28;20439;-73
2021/07/12 05:07:26;;;;;;;48.20;37.08;;;;;;;;;;5078272;28;20352;-76
2021/07/12 05:09:52;;;;;;;46.92;36.45;;;;;;;;;;5081808;28;20060;-76
2021/07/12 05:12:19;;;;;;;45.60;35.67;;;;;;;;;;5084850;28;20059;-76
2021/07/12 05:14:46;;;;;;;44.72;36.50;;;;;;;;;;5083233;28;20087;-76
2021/07/12 05:17:13;;;;;;;44.70;36.92;;;;;;;;;;5080486;28;20135;-76
2021/07/12 05:19:39;;;;;;;47.38;35.60;;;;;;;;;;5078864;28;20068;-76
2021/07/12 05:22:06;;;;;;;50.42;37.50;;;;;;;;;;5081990;28;20091;-76
2021/07/12 05:24:32;;;;;;;45.92;35.88;;;;;;;;;;5082311;28;20048;-76
2021/07/12 05:26:58;;;;;;;46.95;37.13;;;;;;;;;;5082705;28;20386;-76
2021/07/12 05:29:25;;;;;;;53.13;39.90;;;;;;;;;;5084957;28;20089;-76
2021/07/12 05:31:51;;;;;;;46.20;36.75;;;;;;;;;;5081532;28;20071;-78
2021/07/12 05:34:17;;;;;;;50.17;37.97;;;;;;;;;;5080123;28;20098;-76
2021/07/12 05:36:45;;;;;;;57.42;41.72;;;;;;;;;;5080211;28;20162;-76
2021/07/12 05:39:12;;;;;;;47.15;36.55;;;;;;;;;;5082031;28;20385;-76
2021/07/12 05:41:38;;;;;;;45.10;35.95;;;;;;;;;;5084784;28;20059;-76
2021/07/12 05:44:05;;;;;;;47.78;36.58;;;;;;;;;;5081858;28;20040;-75
2021/07/12 05:46:31;;;;;;;45.15;36.63;;;;;;;;;;5079760;28;20032;-75
2021/07/12 05:48:57;;;;;;;46.20;34.35;;;;;;;;;;5083777;28;20373;-74
2021/07/12 05:51:23;;;;;;;43.20;35.38;;;;;;;;;;5065384;28;20833;-75
2021/07/12 05:53:50;;;;;;;43.47;33.15;;;;;;;;;;5084460;28;20040;-74
2021/07/12 05:56:16;;;;;;;39.90;31.35;;;;;;;;;;5084373;28;20044;-74
2021/07/12 05:58:42;;;;;;;37.35;32.15;;;;;;;;;;5080917;28;20534;-76
2021/07/12 06:01:09;;;;;;;39.30;31.05;;;;;;;;;;5061322;28;20119;-75
2021/07/12 06:03:35;;;;;;;42.00;35.47;;;;;;;;;;5083311;28;20048;-76
2021/07/12 06:06:01;;;;;;;45.17;35.00;;;;;;;;;;5079760;28;20507;-75
2021/07/12 06:08:27;;;;;;;42.45;35.90;;;;;;;;;;5075348;28;21676;-76
2021/07/12 06:10:54;;;;;;;38.72;32.58;;;;;;;;;;5082519;28;20040;-75
2021/07/12 06:13:20;;;;;;;40.75;33.40;;;;;;;;;;5065286;28;20403;-75
2021/07/12 06:15:46;;;;;;;39.13;32.92;;;;;;;;;;5082161;28;20101;-75
2021/07/12 06:18:13;;;;;;;49.05;36.60;;;;;;;;;;5081481;28;20047;-76
2021/07/12 06:20:40;;;;;;;41.20;35.10;;;;;;;;;;5085823;28;20064;-75
2021/07/12 06:23:06;;;;;;;42.53;35.95;;;;;;;;;;5084865;28;20379;-75
2021/07/12 06:25:32;;;;;;;40.50;33.78;;;;;;;;;;5080470;28;20098;-75
2021/07/12 06:27:59;;;;;;;43.17;35.70;;;;;;;;;;5085232;28;20053;-75
2021/07/12 06:30:25;;;;;;;41.15;34.05;;;;;;;;;;5087950;28;20063;-75
2021/07/12 06:32:51;;;;;;;39.70;33.65;;;;;;;;;;5085234;28;20067;-75
2021/07/12 06:35:17;;;;;;;38.88;33.10;;;;;;;;;;5069220;28;20052;-75
2021/07/12 06:37:44;;;;;;;39.05;32.28;;;;;;;;;;5066395;28;20067;-75
2021/07/12 06:40:10;;;;;;;35.33;30.98;;;;;;;;;;5087801;28;20133;-75
2021/07/12 06:42:36;;;;;;;39.75;31.27;;;;;;;;;;5083487;28;20044;-75
2021/07/12 06:45:03;;;;;;;39.70;33.40;;;;;;;;;;5084975;28;20635;-77
2021/07/12 06:47:30;;;;;;;38.92;31.80;;;;;;;;;;5084214;28;20055;-75
2021/07/12 06:49:56;;;;;;;36.20;29.88;;;;;;;;;;5087084;28;20088;-75
2021/07/12 06:52:22;;;;;;;36.20;30.48;;;;;;;;;;5084423;28;20484;-75
2021/07/12 06:54:49;;;;;;;37.55;31.40;;;;;;;;;;5050737;28;20054;-76
2021/07/12 06:57:16;;;;;;;33.08;27.73;;;;;;;;;;5085830;28;20048;-76
2021/07/12 06:59:42;;;;;;;30.38;26.08;;;;;;;;;;5087323;28;20402;-75
2021/07/12 07:02:10;;;;;;;30.42;27.05;;;;;;;;;;5068934;28;20515;-75
2021/07/12 07:04:37;;;;;;;30.05;25.88;;;;;;;;;;5085952;28;20059;-76
2021/07/12 07:07:04;;;;;;;32.88;28.67;;;;;;;;;;5083100;28;20062;-75
2021/07/12 07:09:31;;;;;;;30.85;26.45;;;;;;;;;;5065839;28;20052;-75
2021/07/12 07:11:57;;;;;;;34.45;28.63;;;;;;;;;;5084841;28;20040;-75
2021/07/12 07:14:23;;;;;;;30.70;27.48;;;;;;;;;;5084652;28;20083;-75
2021/07/12 07:16:49;;;;;;;30.83;26.27;;;;;;;;;;5090664;28;20079;-75
2021/07/12 07:19:16;;;;;;;34.33;27.67;;;;;;;;;;5090043;28;20036;-75
2021/07/12 07:21:42;;;;;;;31.02;27.73;;;;;;;;;;5086784;28;20142;-75
2021/07/12 07:24:08;;;;;;;32.60;28.45;;;;;;;;;;5086454;28;20521;-75
2021/07/12 07:26:34;;;;;;;33.60;28.08;;;;;;;;;;5083737;28;20564;-74
2021/07/12 07:29:01;;;;;;;36.25;25.42;;;;;;;;;;5073984;28;20113;-75
2021/07/12 07:31:27;;;;;;;29.67;26.48;;;;;;;;;;5091598;28;20055;-75
2021/07/12 07:33:53;;;;;;;30.75;27.08;;;;;;;;;;5088309;28;20040;-76
2021/07/12 07:36:20;;;;;;;28.77;25.65;;;;;;;;;;5088053;28;20068;-74
2021/07/12 07:38:46;;;;;;;29.40;26.25;;;;;;;;;;5089311;28;20067;-75
2021/07/12 07:41:12;;;;;;;30.27;26.55;;;;;;;;;;5089088;28;20669;-75
2021/07/12 07:43:39;;;;;;;30.60;27.40;;;;;;;;;;5069977;28;20074;-75
2021/07/12 07:46:05;;;;;;;30.80;27.27;;;;;;;;;;5091603;28;20471;-75
2021/07/12 07:48:31;;;;;;;30.85;25.40;;;;;;;;;;5074183;28;20048;-75
2021/07/12 07:50:58;;;;;;;27.55;24.73;;;;;;;;;;5091370;28;20127;-75
2021/07/12 07:53:25;;;;;;;31.60;26.52;;;;;;;;;;5092054;28;20410;-75
2021/07/12 07:55:52;;;;;;;28.05;23.80;;;;;;;;;;5089300;28;20044;-75
2021/07/12 07:58:19;;;;;;;29.38;25.52;;;;;;;;;;5082762;28;20044;-75
2021/07/12 08:00:45;;;;;;;29.27;23.95;;;;;;;;;;5084059;28;20044;-75
2021/07/12 08:03:11;;;;;;;25.52;22.88;;;;;;;;;;5087675;28;20048;-75
2021/07/12 08:05:37;;;;;;;26.35;23.73;;;;;;;;;;5086241;28;20046;-75
2021/07/12 08:08:04;;;;;;;25.83;23.08;;;;;;;;;;5084271;28;20052;-75
2021/07/12 08:10:30;;;;;;;25.10;22.40;;;;;;;;;;5072572;28;20072;-75
2021/07/12 08:12:57;;;;;;;26.00;23.33;;;;;;;;;;5072949;28;20044;-75
2021/07/12 08:15:24;;;;;;;27.30;22.65;;;;;;;;;;5091514;28;20040;-75
2021/07/12 08:17:52;;;;;;;25.75;22.95;;;;;;;;;;5074475;28;20081;-75
2021/07/12 08:20:19;;;;;;;25.35;22.67;;;;;;;;;;5091633;28;20059;-75
2021/07/12 08:22:46;;;;;;;23.65;20.02;;;;;;;;;;5092182;28;20055;-75
2021/07/12 08:25:13;;;;;;;25.45;22.63;;;;;;;;;;5092289;28;20048;-75
2021/07/12 08:27:39;;;;;;;22.30;19.90;;;;;;;;;;5091519;28;20536;-75
2021/07/12 08:30:07;;;;;;;24.30;21.25;;;;;;;;;;5074160;28;20132;-75
2021/07/12 08:32:33;;;;;;;26.85;22.52;;;;;;;;;;5091863;28;20063;-75
2021/07/12 08:34:59;;;;;;;23.38;20.73;;;;;;;;;;5091829;28;20058;-75
2021/07/12 08:37:25;;;;;;;24.77;22.17;;;;;;;;;;5086428;28;20055;-75
2021/07/12 08:39:52;;;;;;;21.60;19.27;;;;;;;;;;5091386;28;20044;-75
2021/07/12 08:42:19;;;;;;;23.98;20.40;;;;;;;;;;5092427;28;20040;-75
2021/07/12 08:44:45;;;;;;;23.55;21.15;;;;;;;;;;5091659;28;20164;-75
2021/07/12 08:47:11;;;;;;;23.70;21.05;;;;;;;;;;5088689;28;20175;-75
2021/07/12 08:49:37;;;;;;;22.75;20.23;;;;;;;;;;5051885;28;20079;-75
2021/07/12 08:52:04;;;;;;;23.50;21.05;;;;;;;;;;5073724;28;20097;-75
2021/07/12 08:54:31;;;;;;;24.08;21.52;;;;;;;;;;5054774;28;20119;-76
2021/07/12 08:56:58;;;;;;;22.55;20.27;;;;;;;;;;5071794;28;20040;-75
2021/07/12 08:59:29;;;;;;;23.65;21.25;;;;;;;;;;5053338;28;20143;-75
2021/07/12 09:02:03;;;;;;;22.65;20.27;;;;;;;;;;5070484;28;20037;-75
2021/07/12 09:04:30;;;;;;;24.25;19.98;;;;;;;;;;5070934;28;20044;-75
2021/07/12 09:07:00;;;;;;;23.23;20.85;;;;;;;;;;5074838;28;20037;-75
2021/07/12 09:09:26;;;;;;;21.95;19.60;;;;;;;;;;5070616;28;20044;-75
2021/07/12 09:11:52;;;;;;;21.02;18.75;;;;;;;;;;5064029;28;20102;-75
2021/07/12 09:14:19;;;;;;;20.38;17.38;;;;;;;;;;5072238;28;20118;-75
2021/07/12 09:16:47;;;;;;;22.63;18.00;;;;;;;;;;5069431;28;20375;-74
2021/07/12 09:19:28;;;;;;;19.67;17.48;;;;;;;;;;5074557;28;20044;-75
2021/07/12 09:22:08;;;;;;;19.85;17.65;;;;;;;;;;5070523;28;20048;-75
2021/07/12 09:24:42;;;;;;;19.10;17.20;;;;;;;;;;5048404;28;20106;-75
2021/07/12 09:27:10;;;;;;;20.73;16.88;;;;;;;;;;5071194;28;20048;-75
2021/07/12 09:29:39;;;;;;;19.52;17.30;;;;;;;;;;5068340;28;20044;-75
2021/07/12 09:32:07;;;;;;;17.65;15.82;;;;;;;;;;5070134;28;20048;-75
2021/07/12 09:34:33;;;;;;;21.33;17.80;;;;;;;;;;5083163;28;20495;-75
2021/07/12 09:37:00;;;;;;;19.33;15.98;;;;;;;;;;5084700;28;20223;-75
2021/07/12 09:39:28;;;;;;;17.98;16.08;;;;;;;;;;5068983;28;20040;-75
2021/07/12 09:41:56;;;;;;;18.42;16.27;;;;;;;;;;5088258;28;20399;-75
2021/07/12 09:44:23;;;;;;;17.83;16.00;;;;;;;;;;5083320;28;20072;-75
2021/07/12 09:46:50;;;;;;;16.83;15.02;;;;;;;;;;5084359;28;20084;-75
2021/07/12 09:49:18;;;;;;;18.60;16.00;;;;;;;;;;5083387;28;20036;-75
2021/07/12 09:51:44;;;;;;;20.67;16.67;;;;;;;;;;5084090;28;20043;-75
2021/07/12 09:54:26;;;;;;;17.60;15.75;;;;;;;;;;5077784;28;20560;-75
2021/07/12 09:56:54;;;;;;;16.95;14.40;;;;;;;;;;5085847;28;20386;-75
2021/07/12 09:59:21;;;;;;;17.77;14.85;;;;;;;;;;5074732;28;20111;-75
2021/07/12 10:01:49;;;;;;;16.42;14.82;;;;;;;;;;5084956;28;20064;-75
2021/07/12 10:04:16;;;;;;;14.93;13.32;;;;;;;;;;5084220;28;20119;-75
2021/07/12 10:06:43;;;;;;;14.07;12.77;;;;;;;;;;5085727;28;20039;-76
2021/07/12 10:09:09;;;;;;;16.33;14.63;;;;;;;;;;5086141;28;20491;-75
2021/07/12 10:11:36;;;;;;;17.80;14.45;;;;;;;;;;5081622;28;20082;-75
2021/07/12 10:14:03;;;;;;;15.10;13.23;;;;;;;;;;5068396;28;20115;-75
2021/07/12 10:16:29;;;;;;;14.43;12.77;;;;;;;;;;5087923;28;20517;-75
2021/07/12 10:18:56;;;;;;;12.80;11.45;;;;;;;;;;5084788;28;20040;-75
2021/07/12 10:21:23;;;;;;;14.23;11.88;;;;;;;;;;5080820;28;20374;-75
2021/07/12 10:23:56;;;;;;;14.27;11.40;;;;;;;;;;5084625;28;20036;-76
2021/07/12 10:26:22;;;;;;;;;;;;;;;;;;5088520;28;20052;-75
2021/07/12 10:28:48;;;;;;;12.10;10.85;;;;;;;;;;5081641;28;19920;-75
2021/07/12 10:31:16;;;;;;;10.52;9.43;;;;;;;;;;5087608;28;20132;-75
2021/07/12 10:33:43;;;;;;;14.27;10.82;;;;;;;;;;5088255;28;20051;-75
2021/07/12 10:36:09;;;;;;;12.60;11.27;;;;;;;;;;5076561;28;20032;-75
2021/07/12 10:38:37;;;;;;;11.43;9.70;;;;;;;;;;5090220;28;20119;-76
2021/07/12 10:41:21;;;;;;;11.32;10.15;;;;;;;;;;5070669;28;20040;-75
2021/07/12 10:43:57;;;;;;;13.30;10.85;;;;;;;;;;5066074;28;20044;-75
2021/07/12 10:46:39;;;;;;;14.90;10.63;;;;;;;;;;5073044;28;20060;-76
2021/07/12 10:49:25;;;;;;;13.52;10.55;;;;;;;;;;5088287;28;20126;-76
2021/07/12 10:51:51;;;;;;;12.40;10.07;;;;;;;;;;5085121;28;20043;-76
2021/07/12 10:54:17;;;;;;;13.50;10.77;;;;;;;;;;5089487;28;20491;-76
2021/07/12 10:56:56;;;;;;;12.00;10.73;;;;;;;;;;5087339;28;20115;-75
2021/07/12 10:59:26;;;;;;;11.38;10.27;;;;;;;;;;5081158;28;20429;-75
2021/07/12 11:01:52;;;;;;;11.32;10.13;;;;;;;;;;5082648;28;20040;-75
2021/07/12 11:04:47;;;;;;;13.15;11.73;;;;;;;;;;5088495;28;20096;-75
2021/07/12 11:07:14;;;;;;;13.38;11.95;;;;;;;;;;5090923;28;20510;-76
2021/07/12 11:09:43;;;;;;;16.02;11.70;;;;;;;;;;5093234;28;20048;-76
2021/07/12 11:12:36;;;;;;;14.48;13.05;;;;;;;;;;5093674;28;20444;-76
2021/07/12 11:15:10;;;;;;;14.38;12.07;;;;;;;;;;5093012;28;20484;-76
2021/07/12 11:17:51;;;;;;;13.07;11.48;;;;;;;;;;5075586;28;20044;-76
2021/07/12 11:20:18;;;;;;;15.50;13.20;;;;;;;;;;5093982;28;20180;-76
2021/07/12 11:22:51;;;;;;;15.68;12.95;;;;;;;;;;5093080;28;20044;-75
2021/07/12 11:25:37;;;;;;;14.23;12.25;;;;;;;;;;5093588;28;20048;-75
2021/07/12 11:28:08;;;;;;;14.02;11.52;;;;;;;;;;5062245;28;20062;-76
2021/07/12 11:30:35;;;;;;;13.82;12.02;;;;;;;;;;5087437;28;21280;-75
2021/07/12 11:33:02;;;;;;;12.93;11.63;;;;;;;;;;5087584;28;20515;-76
2021/07/12 11:35:28;;;;;;;14.43;12.10;;;;;;;;;;5088127;28;20111;-76
2021/07/12 11:37:59;;;;;;;12.07;10.70;;;;;;;;;;5048068;28;20076;-75
2021/07/12 11:40:25;;;;;;;12.43;11.05;;;;;;;;;;5023367;28;20046;-76
2021/07/12 11:42:51;;;;;;;10.68;9.57;;;;;;;;;;5021286;28;20140;-76
2021/07/12 11:45:19;;;;;;;11.63;9.95;;;;;;;;;;5032090;28;20041;-76
2021/07/12 11:47:53;;;;;;;11.85;10.43;;;;;;;;;;5019071;28;20055;-76
2021/07/12 11:50:21;;;;;;;12.00;10.27;;;;;;;;;;5021559;28;20052;-76
2021/07/12 11:52:49;;;;;;;14.00;9.88;;;;;;;;;;5016509;28;20045;-76
2021/07/12 11:55:18;;;;;;;14.27;10.70;;;;;;;;;;5028367;28;20107;-76
2021/07/12 11:57:46;;;;;;;11.07;8.40;;;;;;;;;;5023192;28;20052;-76
2021/07/12 12:00:15;;;;;;;10.63;7.72;;;;;;;;;;5025654;28;20049;-76
2021/07/12 12:02:42;;;;;;;8.48;6.68;;;;;;;;;;5023657;28;20045;-76
2021/07/12 12:05:09;;;;;;;8.02;6.65;;;;;;;;;;5020870;28;20504;-76
2021/07/12 12:07:38;;;;;;;8.93;8.07;;;;;;;;;;5023146;28;20045;-75
2021/07/12 12:10:21;;;;;;;11.68;8.85;;;;;;;;;;5026078;28;20053;-76
2021/07/12 12:12:49;;;;;;;10.77;8.63;;;;;;;;;;5020933;28;20093;-76
2021/07/12 12:15:18;;;;;;;9.48;8.55;;;;;;;;;;5024895;28;20434;-76
2021/07/12 12:17:49;;;;;;;11.48;10.02;;;;;;;;;;5023928;28;20477;-76
2021/07/12 12:20:18;;;;;;;11.75;9.90;;;;;;;;;;5021576;28;20064;-76
2021/07/12 12:22:53;;;;;;;12.02;10.15;;;;;;;;;;5024069;28;20123;-76
2021/07/12 12:25:19;;;;;;;10.88;8.80;;;;;;;;;;5019931;28;20038;-76
2021/07/12 12:27:46;;;;;;;9.57;8.68;;;;;;;;;;5026872;28;20049;-76
2021/07/12 12:30:13;;;;;;;12.40;11.18;;;;;;;;;;5025628;28;20033;-76
2021/07/12 12:32:39;;;;;;;12.90;10.82;;;;;;;;;;5032817;28;20132;-76
2021/07/12 12:35:08;;;;;;;11.75;10.50;;;;;;;;;;5044423;28;20106;-76
2021/07/12 12:37:35;;;;;;;10.27;9.18;;;;;;;;;;5047506;28;20400;-76
2021/07/12 12:40:17;;;;;;;10.52;9.43;;;;;;;;;;5043062;28;20170;-76
2021/07/12 12:42:44;;;;;;;14.07;10.13;;;;;;;;;;5045053;28;20055;-76
2021/07/12 12:45:10;;;;;;;15.32;11.52;;;;;;;;;;5046200;28;20469;-76
2021/07/12 12:47:37;;;;;;;12.85;11.55;;;;;;;;;;5045233;28;20096;-76
2021/07/12 12:50:13;;;;;;;17.75;12.23;;;;;;;;;;5043798;28;20045;-76
2021/07/12 12:52:39;;;;;;;13.60;11.20;;;;;;;;;;5043517;28;20159;-76
2021/07/12 12:55:10;;;;;;;12.10;10.68;;;;;;;;;;5040746;28;20044;-76
2021/07/12 12:57:37;;;;;;;12.43;11.18;;;;;;;;;;5047820;28;20481;-75
2021/07/12 13:00:07;;;;;;;12.30;11.10;;;;;;;;;;5029961;28;20085;-76
2021/07/12 13:02:41;;;;;;;14.52;11.57;;;;;;;;;;5031879;28;20056;-76
2021/07/12 13:05:09;;;;;;;12.38;11.18;;;;;;;;;;5032846;28;20701;-76
2021/07/12 13:07:43;;;;;;;12.68;10.93;;;;;;;;;;5033721;28;20457;-76
2021/07/12 13:10:12;;;;;;;13.50;12.13;;;;;;;;;;5034482;28;20552;-75
2021/07/12 13:12:39;;;;;;;13.80;11.98;;;;;;;;;;5029377;28;20045;-75
2021/07/12 13:15:08;;;;;;;14.32;12.93;;;;;;;;;;5034792;28;20045;-75
2021/07/12 13:17:36;;;;;;;15.23;13.48;;;;;;;;;;5042496;28;20053;-75
2021/07/12 13:20:06;;;;;;;31.70;13.95;;;;;;;;;;5043287;28;20064;-74
2021/07/12 13:22:34;;;;;;;16.10;13.20;;;;;;;;;;5024779;28;20526;-77
2021/07/12 13:25:09;;;;;;;15.07;13.57;;;;;;;;;;5045049;28;20048;-76
2021/07/12 13:27:35;;;;;;;14.70;13.18;;;;;;;;;;5042276;28;20425;-76
2021/07/12 13:30:04;;;;;;;13.88;12.48;;;;;;;;;;5039253;28;20079;-76
2021/07/12 13:32:31;;;;;;;13.48;12.13;;;;;;;;;;5041174;28;20045;-76
2021/07/12 13:34:59;;;;;;;12.40;11.10;;;;;;;;;;5040388;28;20043;-76
2021/07/12 13:37:25;;;;;;;14.32;12.93;;;;;;;;;;5042565;28;20041;-76
2021/07/12 13:39:52;;;;;;;16.10;14.40;;;;;;;;;;5041132;28;20104;-76
2021/07/12 13:42:19;;;;;;;17.70;15.77;;;;;;;;;;5035948;28;20049;-76
2021/07/12 13:44:45;;;;;;;18.00;15.05;;;;;;;;;;5048471;28;20119;-76
2021/07/12 13:47:11;;;;;;;18.40;14.80;;;;;;;;;;5040540;28;20106;-76
2021/07/12 13:49:38;;;;;;;16.73;15.02;;;;;;;;;;5037858;28;20490;-76
2021/07/12 13:52:05;;;;;;;16.65;14.95;;;;;;;;;;5036084;28;20048;-76
2021/07/12 13:54:31;;;;;;;16.00;14.30;;;;;;;;;;5043792;28;20047;-75
2021/07/12 13:56:58;;;;;;;17.48;14.68;;;;;;;;;;5035691;28;20444;-76
2021/07/12 13:59:24;;;;;;;16.48;14.20;;;;;;;;;;5037607;28;20037;-76
2021/07/12 14:01:50;;;;;;;16.95;14.98;;;;;;;;;;5043201;28;20116;-76
2021/07/12 14:04:17;;;;;;;16.80;15.00;;;;;;;;;;5045265;28;20319;-75
2021/07/12 14:06:43;;;;;;;18.73;15.93;;;;;;;;;;5035078;28;20057;-76
2021/07/12 14:09:09;;;;;;;20.20;14.80;;;;;;;;;;5042783;28;20045;-76
2021/07/12 14:11:36;;;;;;;19.15;17.05;;;;;;;;;;5039870;28;20045;-76
2021/07/12 14:14:02;;;;;;;21.48;18.30;;;;;;;;;;5039523;28;20040;-76
2021/07/12 14:16:28;;;;;;;20.60;18.52;;;;;;;;;;5032412;28;20033;-76
2021/07/12 14:18:54;;;;;;;23.02;20.60;;;;;;;;;;5043514;28;20056;-76
2021/07/12 14:21:21;;;;;;;36.55;21.48;;;;;;;;;;5038011;28;20044;-77
2021/07/12 14:23:47;;;;;;;23.17;20.08;;;;;;;;;;5038673;28;20029;-76